Time;durP1;ratioP1;P1;durP2;ratioP2;P2;SDS_P1;SDS_P2;PMS_P1;PMS_P2;Temp;Humidity;BMP_temperature;BMP_pressure;BME280_temperature;BME280_humidity;BME280_pressure;Samples;Min_cycle;Max_cycle;Signal;HPM_P1;HPM_P2
2022/06/28 00:00:50;;;;;;;18.80;14.02;;;;;;;19.32;100.00;101936.56;7396992;19;20018;-45
2022/06/28 00:03:21;;;;;;;16.30;13.82;;;;;;;19.19;100.00;101932.03;7396650;19;20023;-47
2022/06/28 00:05:50;;;;;;;18.65;14.68;;;;;;;19.14;100.00;101939.44;7396302;19;20017;-44
2022/06/28 00:08:19;;;;;;;17.13;14.32;;;;;;;19.19;100.00;101933.84;7394368;19;20017;-48
2022/06/28 00:10:48;;;;;;;20.73;14.05;;;;;;;19.26;100.00;101927.19;7396276;19;20118;-45
2022/06/28 00:13:17;;;;;;;18.95;14.57;;;;;;;18.89;100.00;101921.50;7394203;19;20341;-47
2022/06/28 00:18:30;;;;;;;17.48;14.20;;;;;;;19.16;100.00;101936.69;7394638;19;20022;-47
2022/06/28 00:20:59;;;;;;;17.17;13.02;;;;;;;19.17;100.00;101930.41;7393048;19;20006;-46
2022/06/28 00:23:28;;;;;;;17.15;13.55;;;;;;;19.07;100.00;101929.28;7394253;19;20143;-47
2022/06/28 00:25:57;;;;;;;17.52;13.68;;;;;;;19.14;100.00;101931.47;7394719;19;20314;-45
2022/06/28 00:28:26;;;;;;;15.98;13.15;;;;;;;19.14;100.00;101920.84;7391874;19;20018;-47
2022/06/28 00:30:55;;;;;;;18.55;13.55;;;;;;;19.09;100.00;101930.06;7392974;19;20024;-45
2022/06/28 00:33:24;;;;;;;18.55;14.73;;;;;;;19.08;100.00;101929.19;7391503;19;20018;-47
2022/06/28 00:35:56;;;;;;;21.60;15.93;;;;;;;18.96;100.00;101922.00;7393856;19;20007;-46
2022/06/28 00:38:25;;;;;;;17.15;14.13;;;;;;;18.88;100.00;101916.31;7391862;19;20020;-51
2022/06/28 00:40:56;;;;;;;18.60;15.50;;;;;;;19.07;100.00;101916.00;7393243;19;20014;-44
2022/06/28 00:43:25;;;;;;;18.40;16.17;;;;;;;19.17;100.00;101922.44;7392979;19;20025;-46
2022/06/28 00:45:55;;;;;;;18.98;15.93;;;;;;;19.04;100.00;101926.81;7394015;19;20010;-47
2022/06/28 00:48:24;;;;;;;21.98;16.40;;;;;;;19.02;100.00;101916.28;7390733;19;20017;-47
2022/06/28 00:50:56;;;;;;;19.48;16.30;;;;;;;18.94;100.00;101926.53;7391377;19;20114;-44
2022/06/28 00:53:25;;;;;;;19.98;17.17;;;;;;;19.21;100.00;101931.91;7391280;19;20014;-46
2022/06/28 00:55:54;;;;;;;20.85;17.35;;;;;;;19.00;100.00;101934.16;7392492;19;20002;-47
2022/06/28 00:58:23;;;;;;;19.88;17.00;;;;;;;18.98;100.00;101941.34;7392288;19;20010;-44
2022/06/28 01:00:52;;;;;;;20.38;17.25;;;;;;;19.23;100.00;101939.78;7393585;19;20014;-44
2022/06/28 01:03:23;;;;;;;20.58;16.92;;;;;;;18.90;100.00;101941.81;7391527;19;20021;-45
2022/06/28 01:05:56;;;;;;;20.58;18.10;;;;;;;18.82;100.00;101947.56;7391979;19;20019;-47
2022/06/28 01:08:28;;;;;;;21.20;19.00;;;;;;;18.73;100.00;101941.97;7390315;19;20010;-47
2022/06/28 01:11:18;;;;;;;24.25;19.73;;;;;;;18.84;100.00;101944.81;7388522;19;20009;-45
2022/06/28 01:13:50;;;;;;;23.23;19.00;;;;;;;18.63;100.00;101944.34;7389551;19;20468;-48
2022/06/28 01:16:20;;;;;;;22.70;20.00;;;;;;;18.78;100.00;101947.84;7391737;19;20077;-48
2022/06/28 01:18:50;;;;;;;26.40;22.52;;;;;;;18.91;100.00;101947.97;7389468;19;20015;-47
2022/06/28 01:21:36;;;;;;;26.20;22.30;;;;;;;18.90;100.00;101952.44;7390523;19;20539;-47
2022/06/28 01:24:09;;;;;;;28.33;23.52;;;;;;;18.89;100.00;101945.41;7389872;19;20023;-49
2022/06/28 01:26:50;;;;;;;27.00;24.02;;;;;;;18.90;100.00;101946.25;7391181;19;20019;-46
2022/06/28 01:29:20;;;;;;;26.98;23.77;;;;;;;18.82;100.00;101944.91;7389248;19;20026;-46
2022/06/28 01:32:24;;;;;;;25.38;22.58;;;;;;;18.68;100.00;101937.81;7389747;19;20018;-45
2022/06/28 01:34:54;;;;;;;26.95;24.13;;;;;;;18.77;100.00;101944.34;7388675;19;20392;-44
2022/06/28 01:37:27;;;;;;;;;;;;;;;18.80;100.00;101945.97;7391628;19;20006;-44
2022/06/28 01:39:58;;;;;;;25.73;22.35;;;;;;;18.88;100.00;101949.00;7389292;19;19918;-45
2022/06/28 01:42:28;;;;;;;25.55;22.15;;;;;;;18.91;100.00;101950.63;7390865;19;20017;-45
2022/06/28 01:44:58;;;;;;;27.48;23.90;;;;;;;18.74;100.00;101957.81;7389805;19;20018;-48
2022/06/28 01:47:37;;;;;;;25.23;22.27;;;;;;;18.76;100.00;101958.56;7390832;19;20034;-46
2022/06/28 01:50:25;;;;;;;25.10;21.83;;;;;;;18.72;100.00;101959.69;7391814;19;20015;-47
2022/06/28 01:52:54;;;;;;;24.85;20.92;;;;;;;18.68;100.00;101951.06;7389704;19;20122;-46
2022/06/28 01:55:41;;;;;;;26.40;22.48;;;;;;;18.63;100.00;101958.44;7389560;19;20017;-46
2022/06/28 01:58:22;;;;;;;25.00;21.65;;;;;;;18.78;100.00;101962.00;7388995;19;20022;-45
2022/06/28 02:00:51;;;;;;;24.40;21.35;;;;;;;18.74;100.00;101964.91;7389998;19;20017;-47
2022/06/28 02:03:20;;;;;;;25.35;21.77;;;;;;;18.73;100.00;101963.22;7389499;19;20360;-46
2022/06/28 02:06:01;;;;;;;26.30;22.08;;;;;;;18.76;100.00;101965.69;7389388;19;20074;-46
2022/06/28 02:08:31;;;;;;;24.13;21.50;;;;;;;18.81;100.00;101959.16;7388660;19;20085;-46
2022/06/28 02:11:06;;;;;;;27.58;22.95;;;;;;;18.80;100.00;101967.22;7389459;19;20052;-46
2022/06/28 02:13:47;;;;;;;28.17;23.75;;;;;;;18.55;100.00;101966.00;7387633;19;20022;-47
2022/06/28 02:16:16;;;;;;;27.80;24.48;;;;;;;18.55;100.00;101965.16;7389922;19;20015;-47
2022/06/28 02:18:45;;;;;;;28.75;25.70;;;;;;;18.63;100.00;101961.09;7389093;19;20028;-46
2022/06/28 02:21:16;;;;;;;33.17;26.20;;;;;;;18.57;100.00;101961.47;7390834;19;20010;-45
2022/06/28 02:23:45;;;;;;;31.48;26.65;;;;;;;18.54;100.00;101972.28;7395445;19;20014;-45
2022/06/28 02:26:16;;;;;;;28.60;25.40;;;;;;;18.48;100.00;101980.59;7396310;19;20023;-45
2022/06/28 02:28:45;;;;;;;29.40;25.25;;;;;;;18.47;100.00;101981.56;7396669;19;20018;-46
2022/06/28 02:31:17;;;;;;;30.38;26.23;;;;;;;18.40;100.00;101980.22;7395440;19;20388;-46
2022/06/28 02:33:46;;;;;;;30.02;26.77;;;;;;;18.62;100.00;101982.44;7394622;19;20026;-45
2022/06/28 02:41:42;;;;;;;28.80;25.67;;;;;;;18.58;100.00;101984.41;7399550;19;20495;-50
2022/06/28 02:44:11;;;;;;;33.65;28.42;;;;;;;18.65;100.00;101993.75;7400498;19;20025;-46
2022/06/28 02:46:40;;;;;;;31.48;27.92;;;;;;;18.79;100.00;101987.56;7401863;19;20356;-48
2022/06/28 02:49:09;;;;;;;30.33;27.02;;;;;;;18.66;100.00;101994.59;7396024;19;20021;-47
2022/06/28 02:51:38;;;;;;;32.40;28.27;;;;;;;18.80;100.00;101994.59;7395739;19;20022;-45
2022/06/28 02:54:07;;;;;;;31.52;28.00;;;;;;;18.90;100.00;102000.25;7394597;19;20103;-45
2022/06/28 02:56:37;;;;;;;31.95;28.30;;;;;;;18.92;100.00;101997.50;7395382;19;20021;-45
2022/06/28 02:59:09;;;;;;;33.47;28.20;;;;;;;18.73;100.00;102005.72;7394608;19;20368;-47
2022/06/28 03:01:38;;;;;;;31.00;27.58;;;;;;;18.56;100.00;102014.66;7395160;19;20038;-47
2022/06/28 03:04:07;;;;;;;36.20;28.80;;;;;;;18.54;100.00;102006.78;7394276;19;20010;-47
2022/06/28 03:06:36;;;;;;;32.67;28.10;;;;;;;18.56;100.00;102010.19;7397065;19;20023;-46
2022/06/28 03:09:06;;;;;;;38.38;29.67;;;;;;;18.58;100.00;102007.44;7394814;19;20086;-46
2022/06/28 03:11:35;;;;;;;32.88;27.13;;;;;;;18.50;100.00;102010.56;7396179;19;20030;-50
2022/06/28 03:14:04;;;;;;;37.63;29.42;;;;;;;18.67;100.00;102017.53;7393250;19;20014;-47
2022/06/28 03:16:35;;;;;;;29.95;26.67;;;;;;;18.70;100.00;102019.13;7395948;19;20041;-48
2022/06/28 03:19:04;;;;;;;30.25;26.08;;;;;;;18.53;100.00;102023.66;7396952;19;20018;-46
2022/06/28 03:21:33;;;;;;;30.20;26.25;;;;;;;18.62;100.00;102024.91;7397470;19;20022;-46
2022/06/28 03:24:02;;;;;;;28.52;24.45;;;;;;;18.56;100.00;102026.13;7396219;19;20011;-45
2022/06/28 03:26:31;;;;;;;26.67;23.15;;;;;;;18.42;100.00;102034.88;7398309;19;20035;-45
2022/06/28 03:29:00;;;;;;;25.08;22.25;;;;;;;18.30;100.00;102046.22;7395581;19;20082;-47
2022/06/28 03:31:29;;;;;;;27.15;24.10;;;;;;;18.26;100.00;102032.28;7396175;19;20018;-46
2022/06/28 03:34:01;;;;;;;25.75;23.00;;;;;;;18.39;100.00;102036.88;7393184;19;20104;-46
2022/06/28 03:36:30;;;;;;;26.27;23.13;;;;;;;18.32;100.00;102042.56;7395012;19;20349;-45
2022/06/28 03:39:14;;;;;;;25.15;21.48;;;;;;;18.33;100.00;102043.41;7394041;19;20043;-48
2022/06/28 03:41:50;;;;;;;27.58;24.40;;;;;;;18.21;100.00;102044.97;7393721;19;20022;-46
2022/06/28 03:44:19;;;;;;;27.30;23.55;;;;;;;18.24;100.00;102050.09;7393158;19;20010;-46
2022/06/28 03:46:48;;;;;;;26.80;23.13;;;;;;;18.21;100.00;102044.09;7393634;19;20022;-46
2022/06/28 03:49:38;;;;;;;30.25;23.38;;;;;;;18.39;100.00;102052.81;7394176;19;20018;-48
2022/06/28 03:52:31;;;;;;;26.05;22.45;;;;;;;18.20;100.00;102051.19;7393921;19;20010;-46
2022/06/28 03:55:11;;;;;;;24.98;22.35;;;;;;;18.18;100.00;102046.91;7393189;19;20372;-45
2022/06/28 03:57:45;;;;;;;25.10;22.40;;;;;;;18.30;100.00;102052.38;7393248;19;20018;-47
2022/06/28 04:00:16;;;;;;;27.98;24.40;;;;;;;18.23;100.00;102053.69;7394624;19;20018;-47
2022/06/28 04:02:51;;;;;;;26.45;23.52;;;;;;;18.37;100.00;102054.69;7393142;19;20011;-46
2022/06/28 04:05:28;;;;;;;27.30;23.67;;;;;;;18.36;100.00;102059.13;7393633;19;20052;-46
2022/06/28 04:08:00;;;;;;;30.42;25.98;;;;;;;18.26;100.00;102064.09;7392430;19;20014;-48
2022/06/28 04:10:48;;;;;;;28.35;25.08;;;;;;;18.21;100.00;102062.66;7393179;19;20010;-49
2022/06/28 04:13:23;;;;;;;29.23;24.23;;;;;;;18.35;100.00;102060.06;7392222;19;20015;-48
2022/06/28 04:15:51;;;;;;;26.90;23.88;;;;;;;18.30;100.00;102065.66;7392430;19;20017;-47
2022/06/28 04:18:25;;;;;;;27.77;23.52;;;;;;;18.26;100.00;102066.75;7391941;19;20015;-48
2022/06/28 04:21:21;;;;;;;28.65;24.52;;;;;;;18.41;100.00;102067.72;7392249;19;20014;-47
2022/06/28 04:23:55;;;;;;;28.58;22.92;;;;;;;18.23;100.00;102074.91;7391909;19;20490;-46
2022/06/28 04:26:24;;;;;;;25.27;22.17;;;;;;;18.27;100.00;102076.44;7393097;19;20046;-49
2022/06/28 04:28:54;;;;;;;28.88;24.15;;;;;;;18.21;100.00;102071.50;7391818;19;20014;-51
2022/06/28 04:31:27;;;;;;;27.42;22.35;;;;;;;18.38;100.00;102070.50;7391917;19;20025;-49
2022/06/28 04:33:56;;;;;;;27.17;22.85;;;;;;;18.48;100.00;102076.16;7390579;19;20018;-46
2022/06/28 04:36:31;;;;;;;24.45;21.63;;;;;;;18.42;100.00;102072.03;7394305;19;20025;-50
2022/06/28 04:39:00;;;;;;;23.00;19.90;;;;;;;18.38;100.00;102073.16;7397126;19;20014;-46
2022/06/28 04:41:36;;;;;;;23.75;20.42;;;;;;;18.36;100.00;102075.06;7394021;19;20014;-45
2022/06/28 04:44:12;;;;;;;26.58;20.15;;;;;;;18.59;100.00;102072.88;7392440;19;20021;-46
2022/06/28 04:46:47;;;;;;;22.92;18.95;;;;;;;18.54;100.00;102067.84;7392836;19;20018;-45
2022/06/28 04:49:20;;;;;;;;;;;;;;;18.10;100.00;102064.13;7390832;19;20014;-47
2022/06/28 04:51:56;;;;;;;18.88;16.60;;;;;;;18.34;100.00;102058.38;7391311;19;20370;-48
2022/06/28 04:54:31;;;;;;;19.65;16.55;;;;;;;18.52;100.00;102063.56;7390187;19;20017;-45
2022/06/28 04:57:26;;;;;;;19.88;15.13;;;;;;;18.15;100.00;102063.88;7391699;19;20014;-46
2022/06/28 05:00:12;;;;;;;18.42;15.02;;;;;;;17.91;100.00;102066.09;7390500;19;20022;-48
2022/06/28 05:02:46;;;;;;;16.50;12.70;;;;;;;17.88;100.00;102066.22;7390708;19;20057;-47
2022/06/28 05:05:35;;;;;;;17.17;13.50;;;;;;;18.21;100.00;102070.63;7388868;19;20022;-45
2022/06/28 05:08:07;;;;;;;18.75;13.93;;;;;;;18.43;100.00;102076.41;7391862;19;20014;-51
2022/06/28 05:10:51;;;;;;;18.35;14.05;;;;;;;18.59;100.00;102079.03;7391033;19;20499;-48
2022/06/28 05:13:31;;;;;;;16.70;14.40;;;;;;;18.50;100.00;102075.13;7390050;19;20007;-46
2022/06/28 05:16:02;;;;;;;13.75;11.88;;;;;;;18.07;100.00;102071.41;7390257;19;20495;-47
2022/06/28 05:18:31;;;;;;;14.45;12.43;;;;;;;18.03;100.00;102069.88;7389501;19;20440;-45
2022/06/28 05:21:01;;;;;;;16.92;12.65;;;;;;;18.45;100.00;102069.25;7390676;19;20335;-45
2022/06/28 05:23:33;;;;;;;16.58;11.57;;;;;;;17.55;100.00;102075.97;7389248;19;20018;-50
2022/06/28 05:26:24;;;;;;;14.18;11.23;;;;;;;17.42;100.00;102062.50;7390511;19;20018;-44
2022/06/28 05:29:12;;;;;;;14.70;10.65;;;;;;;17.90;100.00;102069.66;7389468;19;20421;-47
2022/06/28 05:31:41;;;;;;;16.33;10.98;;;;;;;17.85;100.00;102064.59;7390334;19;20518;-44
2022/06/28 05:34:11;;;;;;;14.25;10.40;;;;;;;17.75;100.00;102066.91;7388900;19;20408;-46
2022/06/28 05:36:40;;;;;;;15.63;10.63;;;;;;;17.69;100.00;102061.09;7390361;19;20468;-47
2022/06/28 05:39:14;;;;;;;17.08;10.00;;;;;;;17.81;100.00;102063.09;7388162;19;20019;-47
2022/06/28 05:41:44;;;;;;;16.42;9.60;;;;;;;17.76;100.00;102055.34;7391891;19;20014;-50
2022/06/28 05:44:14;;;;;;;15.02;9.35;;;;;;;17.75;100.00;102050.13;7389015;19;20017;-46
2022/06/28 05:46:43;;;;;;;16.02;9.00;;;;;;;17.97;100.00;102056.00;7389707;19;20121;-46
2022/06/28 05:49:13;;;;;;;15.50;9.20;;;;;;;18.31;100.00;102058.53;7388265;19;20037;-47
2022/06/28 05:51:43;;;;;;;17.40;8.60;;;;;;;18.62;100.00;102056.78;7390056;19;20022;-47
2022/06/28 05:54:17;;;;;;;14.50;9.65;;;;;;;18.47;100.00;102064.69;7389209;19;20010;-48
2022/06/28 05:56:46;;;;;;;16.15;9.07;;;;;;;18.30;100.00;102057.69;7394438;19;20017;-46
2022/06/28 05:59:15;;;;;;;14.13;9.23;;;;;;;18.44;100.00;102056.91;7396364;19;20483;-47
2022/06/28 06:01:44;;;;;;;12.80;7.97;;;;;;;18.07;100.00;102055.50;7398934;19;20067;-46
2022/06/28 06:04:13;;;;;;;14.77;7.95;;;;;;;18.58;100.00;102050.78;7396429;19;20767;-46
2022/06/28 06:06:42;;;;;;;14.60;8.07;;;;;;;18.42;100.00;102058.78;7398965;19;20359;-46
2022/06/28 06:09:11;;;;;;;18.67;9.35;;;;;;;18.50;100.00;102061.00;7396473;19;20015;-45
2022/06/28 06:11:44;;;;;;;18.48;8.98;;;;;;;18.84;100.00;102061.66;7397093;19;20481;-50
2022/06/28 06:14:13;;;;;;;14.82;9.27;;;;;;;18.99;100.00;102067.91;7396849;19;20506;-48
2022/06/28 06:16:42;;;;;;;14.50;8.30;;;;;;;18.23;100.00;102071.41;7397596;19;20010;-50
2022/06/28 06:19:11;;;;;;;20.23;9.55;;;;;;;18.38;100.00;102072.31;7395710;19;20014;-45
2022/06/28 06:21:40;;;;;;;17.30;9.27;;;;;;;18.87;100.00;102064.19;7396720;19;20399;-45
2022/06/28 06:24:11;;;;;;;19.15;9.07;;;;;;;18.65;100.00;102075.16;7395422;19;20018;-47
2022/06/28 06:27:07;;;;;;;19.83;10.15;;;;;;;18.86;100.00;102075.72;7397183;19;20364;-46
2022/06/28 06:29:37;;;;;;;18.33;9.95;;;;;;;18.29;100.00;102084.31;7396120;19;20019;-45
2022/06/28 06:32:10;;;;;;;23.13;10.27;;;;;;;18.40;100.00;102079.25;7396918;19;20021;-45
2022/06/28 06:35:13;;;;;;;19.98;10.25;;;;;;;18.46;100.00;102080.69;7395523;19;20011;-44
2022/06/28 06:37:42;;;;;;;20.95;10.05;;;;;;;18.39;100.00;102085.50;7395733;19;20018;-47
2022/06/28 06:40:12;;;;;;;21.67;9.68;;;;;;;18.53;100.00;102079.41;7395126;19;20049;-45
2022/06/28 06:42:45;;;;;;;20.77;9.82;;;;;;;18.64;100.00;102084.06;7398666;19;20354;-46
2022/06/28 06:45:16;;;;;;;23.55;10.43;;;;;;;18.60;100.00;102075.44;7395190;19;20015;-46
2022/06/28 06:47:45;;;;;;;17.55;9.00;;;;;;;19.14;100.00;102082.06;7398249;19;20014;-45
2022/06/28 06:50:14;;;;;;;23.95;10.30;;;;;;;19.21;100.00;102077.22;7397219;19;20011;-44
2022/06/28 06:52:43;;;;;;;16.15;9.40;;;;;;;19.57;100.00;102089.19;7397490;19;20479;-46
2022/06/28 06:55:12;;;;;;;15.45;9.40;;;;;;;19.19;100.00;102093.28;7396060;19;20021;-46
2022/06/28 06:57:41;;;;;;;18.45;10.30;;;;;;;19.63;100.00;102087.03;7395705;19;20014;-45
2022/06/28 07:00:14;;;;;;;22.05;9.57;;;;;;;19.23;100.00;102093.91;7395435;19;20404;-44
2022/06/28 07:02:43;;;;;;;18.63;8.90;;;;;;;19.03;100.00;102090.69;7399133;19;20015;-44
2022/06/28 07:05:14;;;;;;;23.67;9.60;;;;;;;19.50;100.00;102089.59;7395326;19;20007;-45
2022/06/28 07:07:44;;;;;;;21.17;10.05;;;;;;;19.83;100.00;102090.25;7394879;19;20066;-45
2022/06/28 07:10:13;;;;;;;21.55;10.32;;;;;;;19.82;100.00;102094.72;7398081;19;20456;-44
2022/06/28 07:12:42;;;;;;;21.95;9.90;;;;;;;19.99;100.00;102101.63;7398176;19;20015;-45
2022/06/28 07:15:13;;;;;;;18.95;8.85;;;;;;;19.90;100.00;102091.56;7394504;19;20021;-46
2022/06/28 07:17:43;;;;;;;18.60;8.13;;;;;;;20.13;100.00;102098.09;7395283;19;20483;-46
2022/06/28 07:20:14;;;;;;;14.10;7.18;;;;;;;20.14;100.00;102098.94;7394240;19;20562;-47
2022/06/28 07:22:43;;;;;;;18.17;8.35;;;;;;;20.24;100.00;102102.72;7395324;19;20480;-47
2022/06/28 07:25:17;;;;;;;21.77;8.60;;;;;;;20.33;100.00;102099.47;7393092;19;20488;-46
2022/06/28 07:27:46;;;;;;;23.00;7.72;;;;;;;20.23;100.00;102101.00;7394713;19;20105;-45
2022/06/28 07:30:18;;;;;;;22.05;7.72;;;;;;;20.48;100.00;102102.06;7395369;19;20049;-47
2022/06/28 07:32:47;;;;;;;17.77;7.43;;;;;;;20.55;100.00;102106.03;7394353;19;20018;-47
2022/06/28 07:35:18;;;;;;;17.85;7.65;;;;;;;20.41;100.00;102106.94;7392087;19;20431;-49
2022/06/28 07:37:47;;;;;;;16.15;7.32;;;;;;;20.54;100.00;102114.97;7395627;19;20762;-46
2022/06/28 07:40:17;;;;;;;20.90;7.63;;;;;;;20.40;100.00;102118.53;7393366;19;20080;-46
2022/06/28 07:43:15;;;;;;;14.65;7.32;;;;;;;20.53;100.00;102113.25;7395268;19;20015;-47
2022/06/28 07:45:51;;;;;;;17.70;6.82;;;;;;;20.58;100.00;102111.16;7393983;19;20458;-48
2022/06/28 07:48:22;;;;;;;13.98;7.00;;;;;;;20.75;100.00;102115.41;7392952;19;20096;-49
2022/06/28 07:53:35;;;;;;;16.77;6.18;;;;;;;19.93;100.00;102107.34;7395768;19;20049;-49
2022/06/28 07:56:13;;;;;;;19.98;6.53;;;;;;;20.48;100.00;102110.91;7391858;19;20022;-52
2022/06/28 07:58:42;;;;;;;13.73;6.00;;;;;;;20.68;100.00;102106.09;7393350;19;20022;-49
2022/06/28 08:01:22;;;;;;;13.63;5.68;;;;;;;20.31;100.00;102103.19;7394567;19;20007;-46
2022/06/28 08:03:53;;;;;;;19.45;5.90;;;;;;;20.82;100.00;102110.50;7398862;19;20503;-49
2022/06/28 08:06:22;;;;;;;13.63;4.88;;;;;;;20.48;100.00;102102.91;7401675;19;20022;-50
2022/06/28 08:08:55;;;;;;;18.10;5.95;;;;;;;20.59;100.00;102096.91;7398555;19;20006;-46
2022/06/28 08:11:25;;;;;;;13.45;4.95;;;;;;;20.69;100.00;102094.47;7399680;19;20438;-46
2022/06/28 08:13:57;;;;;;;12.82;4.03;;;;;;;20.63;96.28;102094.88;7394458;19;20074;-48
2022/06/28 08:16:28;;;;;;;16.10;4.23;;;;;;;20.26;97.60;102097.28;7395138;19;20015;-48
2022/06/28 08:18:57;;;;;;;13.23;4.80;;;;;;;20.51;96.23;102088.56;7394116;19;20253;-47
2022/06/28 08:21:34;;;;;;;13.68;4.00;;;;;;;20.66;100.00;102097.31;7395135;19;20015;-49
2022/06/28 08:24:03;;;;;;;13.55;3.08;;;;;;;20.80;96.28;102089.28;7394676;19;20091;-49
2022/06/28 08:26:33;;;;;;;10.48;2.72;;;;;;;21.09;86.35;102083.81;7394855;19;20014;-50
2022/06/28 08:29:02;;;;;;;8.73;3.35;;;;;;;20.93;90.30;102078.66;7393039;19;20018;-51
2022/06/28 08:31:37;;;;;;;9.63;3.50;;;;;;;20.90;86.71;102086.84;7395078;19;20025;-49
2022/06/28 08:34:06;;;;;;;11.85;4.05;;;;;;;21.43;94.32;102079.66;7393921;19;20028;-48
2022/06/28 08:36:35;;;;;;;14.02;4.25;;;;;;;21.25;81.72;102086.25;7393049;19;20484;-47
2022/06/28 08:39:06;;;;;;;12.23;3.00;;;;;;;21.25;85.01;102084.44;7392620;19;20019;-47
2022/06/28 08:41:37;;;;;;;9.15;3.00;;;;;;;21.25;86.12;102084.44;7395437;19;20014;-46
2022/06/28 08:44:06;;;;;;;12.52;3.58;;;;;;;21.74;86.58;102092.63;7394618;19;20018;-46
2022/06/28 08:46:39;;;;;;;9.93;2.90;;;;;;;21.37;81.38;102081.88;7394836;19;20017;-45
2022/06/28 08:49:14;;;;;;;9.55;2.80;;;;;;;21.41;74.17;102076.22;7393379;19;20011;-46
2022/06/28 08:51:43;;;;;;;8.32;2.72;;;;;;;21.68;80.90;102082.38;7394530;19;20019;-46
2022/06/28 08:54:15;;;;;;;8.73;2.25;;;;;;;21.36;67.91;102080.16;7393318;19;20026;-46
2022/06/28 08:56:43;;;;;;;8.32;3.00;;;;;;;21.17;73.01;102073.44;7369671;19;20021;-48
2022/06/28 08:59:13;;;;;;;7.85;3.10;;;;;;;21.40;76.14;102073.66;7391033;19;20014;-49
2022/06/28 09:01:45;;;;;;;10.60;3.30;;;;;;;21.34;77.51;102064.28;7393591;19;20011;-46
2022/06/28 09:04:14;;;;;;;13.18;3.67;;;;;;;21.66;78.46;102060.31;7393651;19;20019;-47
2022/06/28 09:06:43;;;;;;;14.75;2.97;;;;;;;21.97;83.81;102063.44;7394058;19;20011;-47
2022/06/28 09:09:11;;;;;;;7.88;2.80;;;;;;;22.17;76.12;102073.50;7392220;19;20014;-49
2022/06/28 09:11:42;;;;;;;7.65;2.85;;;;;;;22.27;79.35;102068.34;7393928;19;20010;-47
2022/06/28 09:14:27;;;;;;;8.80;2.50;;;;;;;22.20;70.42;102065.25;7390358;19;20108;-46
2022/06/28 09:17:00;;;;;;;8.80;2.60;;;;;;;21.62;70.58;102066.81;7388260;19;20015;-50
2022/06/28 09:19:37;;;;;;;;;;;;;;;22.15;67.82;102059.44;7390925;19;20479;-46
2022/06/28 09:22:07;;;;;;;10.63;3.05;;;;;;;22.00;70.29;102058.72;7392442;19;19922;-48
2022/06/28 09:24:36;;;;;;;8.48;2.50;;;;;;;21.59;62.23;102054.56;7390130;19;20030;-47
2022/06/28 09:27:07;;;;;;;6.93;2.33;;;;;;;22.06;67.92;102058.25;7391041;19;20022;-53
2022/06/28 09:29:49;;;;;;;5.63;1.85;;;;;;;22.11;58.25;102053.44;7390752;19;20015;-49
2022/06/28 09:32:28;;;;;;;4.47;1.52;;;;;;;21.89;60.70;102056.84;7395199;19;20011;-46
2022/06/28 09:34:59;;;;;;;6.97;1.63;;;;;;;21.42;64.41;102050.41;7396742;19;20014;-46
2022/06/28 09:37:36;;;;;;;7.28;2.13;;;;;;;22.10;59.21;102053.56;7397281;19;20010;-47
2022/06/28 09:40:17;;;;;;;5.55;1.92;;;;;;;22.27;62.70;102049.66;7396256;19;20045;-48
2022/06/28 09:42:48;;;;;;;7.28;2.08;;;;;;;22.80;59.51;102051.94;7397074;19;20080;-48
2022/06/28 09:45:19;;;;;;;7.18;2.38;;;;;;;22.27;56.12;102045.16;7395454;19;20033;-47
2022/06/28 09:47:51;;;;;;;5.78;2.05;;;;;;;22.18;59.51;102048.50;7395762;19;20018;-47
2022/06/28 09:50:23;;;;;;;6.45;2.10;;;;;;;21.62;60.70;102050.81;7395689;19;20014;-50
2022/06/28 09:52:54;;;;;;;7.55;2.97;;;;;;;22.26;64.53;102039.91;7396803;19;20372;-47
2022/06/28 09:55:22;;;;;;;8.30;2.30;;;;;;;22.97;63.77;102034.59;7395288;19;20015;-47
2022/06/28 09:57:51;;;;;;;5.05;1.50;;;;;;;23.16;55.38;102031.34;7396578;19;20014;-46
2022/06/28 10:00:24;;;;;;;4.78;1.70;;;;;;;23.26;56.18;102035.00;7397045;19;20015;-46
2022/06/28 10:02:57;;;;;;;4.95;1.50;;;;;;;22.78;51.46;102024.44;7395267;19;20021;-47
2022/06/28 10:05:28;;;;;;;4.22;1.20;;;;;;;22.90;57.45;102020.84;7394482;19;20014;-45
2022/06/28 10:07:58;;;;;;;5.47;1.70;;;;;;;23.59;57.48;102027.91;7395765;19;20027;-45
2022/06/28 10:10:27;;;;;;;10.45;2.10;;;;;;;23.45;56.83;102026.34;7395229;19;20407;-47
2022/06/28 10:15:40;;;;;;;5.97;1.75;;;;;;;22.73;54.52;102011.44;7396789;19;20026;-51
2022/06/28 10:18:18;;;;;;;5.47;2.03;;;;;;;22.47;52.06;102024.13;7398525;19;20355;-53
2022/06/28 10:20:47;;;;;;;3.92;1.73;;;;;;;22.98;51.96;102014.88;7399036;19;20025;-53
2022/06/28 10:23:24;;;;;;;4.38;1.50;;;;;;;23.52;55.68;102009.81;7398735;19;20341;-44
2022/06/28 10:26:11;;;;;;;4.93;1.60;;;;;;;23.60;56.28;102016.25;7398155;19;20043;-46
2022/06/28 10:28:43;;;;;;;5.45;1.40;;;;;;;23.55;48.74;102021.09;7397852;19;20034;-47
2022/06/28 10:31:34;;;;;;;4.70;1.40;;;;;;;23.79;50.52;102014.75;7398778;19;20018;-47
2022/06/28 10:34:07;;;;;;;4.22;1.52;;;;;;;24.16;51.63;102012.59;7396957;19;20025;-48
2022/06/28 10:36:45;;;;;;;6.30;2.70;;;;;;;24.51;50.59;102018.63;7394994;19;20353;-51
2022/06/28 10:39:17;;;;;;;6.88;1.60;;;;;;;24.34;51.19;102012.00;7397253;19;20021;-50
2022/06/28 10:41:47;;;;;;;4.88;1.30;;;;;;;23.56;47.48;102009.44;7397352;19;20479;-49
2022/06/28 10:44:18;;;;;;;3.45;1.20;;;;;;;23.61;49.58;102001.03;7396198;19;20015;-47
2022/06/28 10:47:11;;;;;;;3.63;1.02;;;;;;;23.89;54.58;101998.81;7398001;19;20018;-46
2022/06/28 10:50:02;;;;;;;4.65;1.25;;;;;;;24.23;49.97;102006.72;7397947;19;20020;-47
2022/06/28 10:52:35;;;;;;;3.63;1.27;;;;;;;24.04;50.57;101997.53;7397374;19;20360;-46
2022/06/28 10:55:25;;;;;;;3.75;1.60;;;;;;;24.83;51.67;101996.28;7395343;19;20020;-47
2022/06/28 10:58:10;;;;;;;4.68;1.60;;;;;;;24.34;47.93;102002.16;7396203;19;20040;-47
2022/06/28 11:00:54;;;;;;;5.68;1.40;;;;;;;24.32;51.04;101997.91;7397052;19;20035;-48
2022/06/28 11:03:23;;;;;;;4.35;1.70;;;;;;;24.37;48.44;101995.69;7397192;19;20483;-46
2022/06/28 11:05:56;;;;;;;4.78;1.77;;;;;;;24.63;49.68;101990.81;7397912;19;20539;-47
2022/06/28 11:08:51;;;;;;;10.35;1.70;;;;;;;24.71;49.37;101987.47;7396242;19;20015;-43
2022/06/28 11:11:20;;;;;;;3.38;1.30;;;;;;;24.99;47.71;101983.25;7396672;19;20018;-46
2022/06/28 11:13:49;;;;;;;5.65;1.45;;;;;;;25.15;44.63;101984.59;7396186;19;20025;-45
2022/06/28 11:16:48;;;;;;;3.28;1.42;;;;;;;24.73;45.99;101971.25;7395556;19;20021;-54
2022/06/28 11:19:17;;;;;;;4.70;1.63;;;;;;;25.04;43.64;101974.81;7395370;19;20006;-45
2022/06/28 11:21:49;;;;;;;4.55;1.70;;;;;;;24.82;48.38;101957.06;7396708;19;20034;-44
2022/06/28 11:24:18;;;;;;;7.80;2.55;;;;;;;25.86;51.13;101962.16;7394923;19;20030;-46
2022/06/28 11:29:29;;;;;;;14.43;2.80;;;;;;;25.67;45.17;101963.84;7395716;19;20015;-49
2022/06/28 11:31:58;;;;;;;4.95;1.63;;;;;;;25.56;44.36;101962.16;7396303;19;20484;-46
2022/06/28 11:34:27;;;;;;;5.20;1.50;;;;;;;26.68;43.23;101960.84;7396038;19;20029;-45
2022/06/28 11:37:00;;;;;;;3.05;1.33;;;;;;;26.08;40.76;101969.97;7394919;19;20068;-46
2022/06/28 11:39:29;;;;;;;3.55;1.60;;;;;;;26.51;44.98;101959.75;7396928;19;20015;-45
2022/06/28 11:41:58;;;;;;;4.07;1.65;;;;;;;27.86;44.61;101950.31;7395934;19;20364;-48
2022/06/28 11:44:28;;;;;;;4.75;1.48;;;;;;;28.82;42.63;101963.00;7395402;19;20030;-47
2022/06/28 11:46:57;;;;;;;5.03;1.40;;;;;;;27.35;41.44;101954.50;7396836;19;20104;-50
2022/06/28 11:49:31;;;;;;;5.22;1.70;;;;;;;27.58;39.99;101958.47;7395276;19;20014;-45
2022/06/28 11:52:03;;;;;;;6.50;1.58;;;;;;;27.13;40.99;101958.41;7397751;19;20348;-46